Time,TemperatureF,DewpointF,PressureIn,WindDirection,WindDirectionDegrees,WindSpeedMPH,WindSpeedGustMPH,Humidity,HourlyPrecipIn,Conditions,Clouds,dailyrainin,SoftwareType,DateUTC
2013-09-23 00:02:00,46.0,38.6,30.01,ENE,71,0.0,0.0,75,0.00,,---,0.00,VWS V13.01,2013-09-23 05:02:00,
2013-09-23 00:07:00,46.2,38.8,30.01,ENE,71,0.0,0.0,75,0.00,,---,0.00,VWS V13.01,2013-09-23 05:07:00,
2013-09-23 00:12:00,46.4,38.6,30.01,SSE,165,0.0,0.0,74,0.00,,---,0.00,VWS V13.01,2013-09-23 05:12:00,
2013-09-23 00:17:00,46.6,39.1,30.01,SSE,165,0.0,0.0,75,0.00,,---,0.00,VWS V13.01,2013-09-23 05:17:00,
2013-09-23 00:22:00,46.9,39.4,30.01,SSE,165,0.0,0.0,75,0.00,,---,0.00,VWS V13.01,2013-09-23 05:22:00,
2013-09-23 00:27:00,47.3,39.8,30.01,SSE,165,0.0,0.0,75,0.00,,---,0.00,VWS V13.01,2013-09-23 05:27:00,
2013-09-23 00:32:00,47.8,40.3,30.01,SSE,165,0.0,0.0,75,0.00,,---,0.00,VWS V13.01,2013-09-23 05:32:00,
2013-09-23 00:37:00,48.4,40.5,30.01,SSE,165,4.0,4.0,74,0.00,,---,0.00,VWS V13.01,2013-09-23 05:37:00,
2013-09-23 00:42:00,48.7,39.8,30.01,SSE,165,3.6,4.0,71,0.00,,---,0.00,VWS V13.01,2013-09-23 05:42:00,
2013-09-23 00:47:00,48.9,37.7,30.01,SSE,165,4.0,4.5,65,0.00,,---,0.00,VWS V13.01,2013-09-23 05:47:00,
2013-09-23 00:52:00,49.3,34.7,30.01,SSE,166,4.0,4.7,57,0.00,,---,0.00,VWS V13.01,2013-09-23 05:52:00,
2013-09-23 00:57:00,49.5,33.5,30.01,SSE,166,3.6,4.0,54,0.00,,---,0.00,VWS V13.01,2013-09-23 05:57:00,
2013-09-23 01:02:00,49.6,33.2,30.01,SSE,166,4.5,4.7,53,0.00,,---,0.00,VWS V13.01,2013-09-23 06:02:00,
2013-09-23 01:07:00,49.6,32.8,30.01,SSE,166,3.6,4.0,52,0.00,,---,0.00,VWS V13.01,2013-09-23 06:07:00,
2013-09-23 01:12:00,49.8,32.4,30.01,SSE,166,4.0,4.5,51,0.00,,---,0.00,VWS V13.01,2013-09-23 06:12:00,
2013-09-23 01:17:00,49.8,32.4,30.01,SSE,166,4.0,4.5,51,0.00,,---,0.00,VWS V13.01,2013-09-23 06:17:00,
2013-09-23 01:22:00,49.8,31.9,30.01,SSE,166,3.1,4.0,50,0.00,,---,0.00,VWS V13.01,2013-09-23 06:22:00,
2013-09-23 01:27:00,49.6,31.8,30.01,SSE,166,4.0,4.0,50,0.00,,---,0.00,VWS V13.01,2013-09-23 06:27:00,
2013-09-23 01:32:00,49.6,31.8,30.01,SSE,166,4.0,4.0,50,0.00,,---,0.00,VWS V13.01,2013-09-23 06:32:00,
2013-09-23 01:37:00,49.5,31.6,30.01,SSE,166,3.6,4.5,50,0.00,,---,0.00,VWS V13.01,2013-09-23 06:37:00,
2013-09-23 01:42:00,49.3,31.9,30.01,SSE,166,3.6,3.6,51,0.00,,---,0.00,VWS V13.01,2013-09-23 06:42:00,
2013-09-23 01:47:00,49.1,31.8,30.01,SSE,166,3.6,4.0,51,0.00,,---,0.00,VWS V13.01,2013-09-23 06:47:00,
2013-09-23 01:52:00,48.9,31.6,30.01,SSE,166,3.6,3.6,51,0.00,,---,0.00,VWS V13.01,2013-09-23 06:52:00,
2013-09-23 01:57:00,48.7,31.4,30.01,SSE,166,3.6,3.6,51,0.00,,---,0.00,VWS V13.01,2013-09-23 06:57:00,
2013-09-23 02:02:00,48.7,31.9,30.01,SSE,166,3.1,3.6,52,0.00,,---,0.00,VWS V13.01,2013-09-23 07:02:00,
2013-09-23 02:07:00,48.6,31.8,30.01,SSE,166,3.6,3.6,52,0.00,,---,0.00,VWS V13.01,2013-09-23 07:07:00,
2013-09-23 02:13:00,48.6,31.8,30.01,SSE,166,3.6,4.0,52,0.00,,---,0.00,VWS V13.01,2013-09-23 07:13:00,
2013-09-23 02:18:00,48.4,31.6,30.01,SSE,166,3.1,4.0,52,0.00,,---,0.00,VWS V13.01,2013-09-23 07:18:00,
2013-09-23 02:23:00,48.4,32.0,30.01,SSE,166,3.6,3.6,53,0.00,,---,0.00,VWS V13.01,2013-09-23 07:23:00,
2013-09-23 02:28:00,48.4,32.0,30.01,SSE,166,4.0,4.5,53,0.00,,---,0.00,VWS V13.01,2013-09-23 07:28:00,
2013-09-23 02:33:00,48.4,32.0,30.01,SSE,166,3.6,4.0,53,0.00,,---,0.00,VWS V13.01,2013-09-23 07:33:00,
2013-09-23 02:38:00,48.2,31.9,30.01,SSE,166,3.6,4.0,53,0.00,,---,0.00,VWS V13.01,2013-09-23 07:38:00,
2013-09-23 02:43:00,48.2,31.9,30.01,SSE,166,3.1,4.0,53,0.00,,---,0.00,VWS V13.01,2013-09-23 07:43:00,
2013-09-23 02:48:00,48.0,31.7,30.01,SSE,166,4.0,4.0,53,0.00,,---,0.00,VWS V13.01,2013-09-23 07:48:00,
2013-09-23 02:53:00,48.0,32.2,30.01,SSE,166,3.6,4.0,54,0.00,,---,0.00,VWS V13.01,2013-09-23 07:53:00,
2013-09-23 02:58:00,47.8,32.0,30.01,SSE,166,4.0,4.0,54,0.00,,---,0.00,VWS V13.01,2013-09-23 07:58:00,
2013-09-23 03:03:00,47.8,32.0,30.01,SSE,166,3.1,3.6,54,0.00,,---,0.00,VWS V13.01,2013-09-23 08:03:00,
2013-09-23 03:08:00,47.8,32.0,30.01,SSE,166,4.0,4.0,54,0.00,,---,0.00,VWS V13.01,2013-09-23 08:08:00,
2013-09-23 03:13:00,47.8,32.0,30.01,SSE,166,3.6,3.6,54,0.00,,---,0.00,VWS V13.01,2013-09-23 08:13:00,
2013-09-23 03:19:00,47.7,31.9,30.01,SSE,166,3.6,4.0,54,0.00,,---,0.00,VWS V13.01,2013-09-23 08:19:00,
2013-09-23 03:24:00,47.7,31.9,30.01,SSE,166,3.1,3.6,54,0.00,,---,0.00,VWS V13.01,2013-09-23 08:24:00,
2013-09-23 03:29:00,47.7,31.9,30.01,SSE,166,3.1,3.6,54,0.00,,---,0.00,VWS V13.01,2013-09-23 08:29:00,
2013-09-23 03:33:00,47.5,32.1,30.01,SSE,166,3.6,3.6,55,0.00,,---,0.00,VWS V13.01,2013-09-23 08:33:00,
2013-09-23 03:38:00,47.3,32.0,30.01,SSE,166,4.0,4.0,55,0.00,,---,0.00,VWS V13.01,2013-09-23 08:38:00,
2013-09-23 03:43:00,47.3,32.0,30.01,SSE,166,2.7,2.7,55,0.00,,---,0.00,VWS V13.01,2013-09-23 08:43:00,
2013-09-23 03:48:00,47.3,32.0,30.01,SSE,166,3.1,3.1,55,0.00,,---,0.00,VWS V13.01,2013-09-23 08:48:00,
2013-09-23 03:53:00,47.1,32.2,30.01,SSE,166,3.6,3.6,56,0.00,,---,0.00,VWS V13.01,2013-09-23 08:53:00,
2013-09-23 03:59:00,47.1,32.2,30.01,SSE,166,3.1,3.6,56,0.00,,---,0.00,VWS V13.01,2013-09-23 08:59:00,
2013-09-23 04:04:00,47.1,32.7,30.01,SSE,166,4.0,4.0,57,0.00,,---,0.00,VWS V13.01,2013-09-23 09:04:00,
2013-09-23 04:09:00,47.3,32.8,30.01,SSE,166,3.6,3.6,57,0.00,,---,0.00,VWS V13.01,2013-09-23 09:09:00,
2013-09-23 04:14:00,47.3,32.8,30.01,SSE,166,4.0,4.5,57,0.00,,---,0.00,VWS V13.01,2013-09-23 09:14:00,
2013-09-23 04:19:00,47.5,32.6,30.01,SSE,166,4.0,4.0,56,0.00,,---,0.00,VWS V13.01,2013-09-23 09:19:00,
2013-09-23 04:24:00,47.7,32.8,30.01,South,189,4.5,4.5,56,0.00,,---,0.00,VWS V13.01,2013-09-23 09:24:00,
2013-09-23 04:29:00,47.7,32.8,30.01,South,189,4.5,4.5,56,0.00,,---,0.00,VWS V13.01,2013-09-23 09:29:00,
2013-09-23 04:34:00,47.7,32.8,30.01,South,190,4.5,4.5,56,0.00,,---,0.00,VWS V13.01,2013-09-23 09:34:00,
2013-09-23 04:39:00,47.7,32.8,30.01,South,190,3.6,4.5,56,0.00,,---,0.00,VWS V13.01,2013-09-23 09:39:00,
2013-09-23 04:44:00,47.7,33.2,30.01,South,190,4.0,4.0,57,0.00,,---,0.00,VWS V13.01,2013-09-23 09:44:00,
2013-09-23 04:49:00,47.7,33.2,30.01,South,190,4.5,4.7,57,0.00,,---,0.00,VWS V13.01,2013-09-23 09:49:00,
2013-09-23 04:54:00,47.5,33.0,30.01,South,190,4.0,4.5,57,0.00,,---,0.00,VWS V13.01,2013-09-23 09:54:00,
2013-09-23 04:59:00,47.5,33.0,30.01,South,190,4.0,4.5,57,0.00,,---,0.00,VWS V13.01,2013-09-23 09:59:00,
2013-09-23 05:04:00,47.5,33.0,30.01,South,190,4.5,4.5,57,0.00,,---,0.00,VWS V13.01,2013-09-23 10:04:00,
2013-09-23 05:10:00,47.3,32.8,30.01,South,190,4.5,4.5,57,0.00,,---,0.00,VWS V13.01,2013-09-23 10:10:00,
2013-09-23 05:15:00,47.3,33.3,30.01,South,190,4.0,4.0,58,0.00,,---,0.00,VWS V13.01,2013-09-23 10:15:00,
2013-09-23 05:20:00,47.1,33.1,30.01,South,190,3.6,4.0,58,0.00,,---,0.00,VWS V13.01,2013-09-23 10:20:00,
2013-09-23 05:25:00,47.1,33.1,30.01,South,190,3.6,4.5,58,0.00,,---,0.00,VWS V13.01,2013-09-23 10:25:00,
2013-09-23 05:30:00,46.9,33.4,30.01,South,190,4.0,4.0,59,0.00,,---,0.00,VWS V13.01,2013-09-23 10:30:00,
2013-09-23 05:35:00,46.8,33.2,30.01,South,190,3.6,3.6,59,0.00,,---,0.00,VWS V13.01,2013-09-23 10:35:00,
2013-09-23 05:40:00,46.6,33.0,30.01,South,190,3.6,4.0,59,0.00,,---,0.00,VWS V13.01,2013-09-23 10:40:00,
2013-09-23 05:45:00,46.2,33.1,30.01,South,190,3.6,3.6,60,0.00,,---,0.00,VWS V13.01,2013-09-23 10:45:00,
2013-09-23 05:51:00,46.2,33.5,30.01,South,190,4.5,4.5,61,0.00,,---,0.00,VWS V13.01,2013-09-23 10:51:00,
2013-09-23 05:56:00,46.0,33.8,30.01,South,190,3.6,3.6,62,0.00,,---,0.00,VWS V13.01,2013-09-23 10:56:00,
2013-09-23 06:01:00,46.0,34.2,30.01,South,190,4.0,4.5,63,0.00,,---,0.00,VWS V13.01,2013-09-23 11:01:00,
2013-09-23 06:06:00,46.0,34.2,30.01,South,190,4.0,4.0,63,0.00,,---,0.00,VWS V13.01,2013-09-23 11:06:00,
2013-09-23 06:11:00,46.0,34.6,30.01,South,190,4.0,4.0,64,0.00,,---,0.00,VWS V13.01,2013-09-23 11:11:00,
2013-09-23 06:16:00,46.0,34.6,30.01,South,190,3.6,4.0,64,0.00,,---,0.00,VWS V13.01,2013-09-23 11:16:00,
2013-09-23 06:21:00,46.0,34.6,30.01,South,190,4.5,4.5,64,0.00,,---,0.00,VWS V13.01,2013-09-23 11:21:00,
2013-09-23 06:26:00,46.0,35.0,30.01,South,190,4.5,4.5,65,0.00,,---,0.00,VWS V13.01,2013-09-23 11:26:00,
2013-09-23 06:31:00,46.0,35.0,30.01,South,190,4.5,4.5,65,0.00,,---,0.00,VWS V13.01,2013-09-23 11:31:00,
2013-09-23 06:37:00,46.0,35.0,30.01,South,190,4.5,4.5,65,0.00,,---,0.00,VWS V13.01,2013-09-23 11:37:00,
2013-09-23 06:42:00,45.9,34.8,30.01,South,190,3.6,3.6,65,0.00,,---,0.00,VWS V13.01,2013-09-23 11:42:00,
2013-09-23 06:47:00,45.9,35.2,30.04,South,190,3.1,4.0,66,0.00,,---,0.00,VWS V13.01,2013-09-23 11:47:00,
2013-09-23 06:52:00,45.9,35.2,30.04,South,190,3.6,3.6,66,0.00,,---,0.00,VWS V13.01,2013-09-23 11:52:00,
2013-09-23 06:57:00,45.9,35.2,30.04,South,190,2.7,4.0,66,0.00,,---,0.00,VWS V13.01,2013-09-23 11:57:00,
2013-09-23 07:02:00,45.9,35.2,30.04,South,190,3.1,3.6,66,0.00,,---,0.00,VWS V13.01,2013-09-23 12:02:00,
2013-09-23 07:07:00,45.9,35.2,30.04,South,190,3.1,4.0,66,0.00,,---,0.00,VWS V13.01,2013-09-23 12:07:00,
2013-09-23 07:12:00,45.9,35.2,30.04,South,190,3.6,4.0,66,0.00,,---,0.00,VWS V13.01,2013-09-23 12:12:00,
2013-09-23 07:17:00,45.9,35.5,30.04,South,190,3.6,4.0,67,0.00,,---,0.00,VWS V13.01,2013-09-23 12:17:00,
2013-09-23 07:22:00,45.9,35.5,30.04,South,190,3.1,4.0,67,0.00,,---,0.00,VWS V13.01,2013-09-23 12:22:00,
2013-09-23 07:27:00,46.0,36.1,30.04,South,190,3.1,4.0,68,0.00,,---,0.00,VWS V13.01,2013-09-23 12:27:00,
2013-09-23 07:32:00,46.0,36.1,30.04,South,190,3.6,4.0,68,0.00,,---,0.00,VWS V13.01,2013-09-23 12:32:00,
2013-09-23 07:37:00,46.2,36.3,30.04,South,190,3.6,3.6,68,0.00,,---,0.00,VWS V13.01,2013-09-23 12:37:00,
2013-09-23 07:43:00,46.2,36.3,30.04,South,190,3.1,3.6,68,0.00,,---,0.00,VWS V13.01,2013-09-23 12:43:00,
2013-09-23 07:48:00,46.4,36.4,30.04,South,190,3.6,4.5,68,0.00,,---,0.00,VWS V13.01,2013-09-23 12:48:00,
2013-09-23 07:53:00,46.6,36.6,30.04,South,190,3.1,3.1,68,0.00,,---,0.00,VWS V13.01,2013-09-23 12:53:00,
2013-09-23 07:58:00,46.8,36.8,30.04,South,190,3.6,3.6,68,0.00,,---,0.00,VWS V13.01,2013-09-23 12:58:00,
2013-09-23 08:03:00,47.1,37.1,30.04,South,190,3.1,3.1,68,0.00,,---,0.00,VWS V13.01,2013-09-23 13:03:00,
2013-09-23 08:08:00,47.3,37.3,30.04,South,190,3.6,4.0,68,0.00,,---,0.00,VWS V13.01,2013-09-23 13:08:00,
2013-09-23 08:13:00,47.5,37.5,30.04,South,190,3.6,4.5,68,0.00,,---,0.00,VWS V13.01,2013-09-23 13:13:00,
2013-09-23 08:18:00,47.8,37.4,30.04,South,190,4.0,4.0,67,0.00,,---,0.00,VWS V13.01,2013-09-23 13:18:00,
2013-09-23 08:23:00,48.2,37.4,30.04,South,190,4.0,4.5,66,0.00,,---,0.00,VWS V13.01,2013-09-23 13:23:00,
2013-09-23 08:28:00,48.4,37.2,30.04,South,190,4.5,4.5,65,0.00,,---,0.00,VWS V13.01,2013-09-23 13:28:00,
2013-09-23 08:33:00,48.7,37.1,30.04,South,190,4.0,4.0,64,0.00,,---,0.00,VWS V13.01,2013-09-23 13:33:00,
2013-09-23 08:38:00,48.7,36.7,30.04,South,190,4.0,4.5,63,0.00,,---,0.00,VWS V13.01,2013-09-23 13:38:00,
2013-09-23 08:44:00,49.1,36.7,30.04,South,190,4.0,4.5,62,0.00,,---,0.00,VWS V13.01,2013-09-23 13:44:00,
2013-09-23 08:49:00,49.3,36.8,30.04,South,190,4.0,4.0,62,0.00,,---,0.00,VWS V13.01,2013-09-23 13:49:00,
2013-09-23 08:54:00,49.6,36.8,30.04,South,190,4.0,4.5,61,0.00,,---,0.00,VWS V13.01,2013-09-23 13:54:00,
2013-09-23 08:59:00,49.8,36.5,30.04,South,190,4.0,4.0,60,0.00,,---,0.00,VWS V13.01,2013-09-23 13:59:00,
2013-09-23 09:04:00,50.0,36.2,30.04,SW,228,4.5,4.5,59,0.00,,---,0.00,VWS V13.01,2013-09-23 14:04:00,
2013-09-23 09:09:00,50.4,36.6,30.04,SW,228,3.1,3.1,59,0.00,,---,0.00,VWS V13.01,2013-09-23 14:09:00,
2013-09-23 09:14:00,50.7,36.9,30.04,SW,228,4.5,4.5,59,0.00,,---,0.00,VWS V13.01,2013-09-23 14:14:00,
2013-09-23 09:19:00,50.9,37.1,30.04,SW,228,3.1,4.0,59,0.00,,---,0.00,VWS V13.01,2013-09-23 14:19:00,
2013-09-23 09:24:00,51.3,37.4,30.04,SW,228,4.5,4.5,59,0.00,,---,0.00,VWS V13.01,2013-09-23 14:24:00,
2013-09-23 09:29:00,51.3,36.6,30.07,SW,228,4.5,4.5,57,0.00,,---,0.00,VWS V13.01,2013-09-23 14:29:00,
2013-09-23 09:34:00,51.6,36.9,30.07,SW,228,0.0,0.0,57,0.00,,---,0.00,VWS V13.01,2013-09-23 14:34:00,
2013-09-23 09:39:00,51.8,37.1,30.07,SW,228,0.0,4.0,57,0.00,,---,0.00,VWS V13.01,2013-09-23 14:39:00,
2013-09-23 09:44:00,52.2,37.0,30.07,SW,228,0.0,0.0,56,0.00,,---,0.00,VWS V13.01,2013-09-23 14:44:00,
2013-09-23 09:49:00,52.7,36.5,30.07,SW,228,4.0,4.0,54,0.00,,---,0.00,VWS V13.01,2013-09-23 14:49:00,
2013-09-23 09:54:00,53.1,36.9,30.07,SW,228,3.6,4.0,54,0.00,,---,0.00,VWS V13.01,2013-09-23 14:54:00,
2013-09-23 09:59:00,53.4,37.2,30.07,SW,228,0.0,0.0,54,0.00,,---,0.00,VWS V13.01,2013-09-23 14:59:00,
2013-09-23 10:04:00,53.8,36.6,30.07,SW,228,3.1,3.6,52,0.00,,---,0.00,VWS V13.01,2013-09-23 15:04:00,
2013-09-23 10:10:00,54.3,36.6,30.07,WSW,248,4.5,4.5,51,0.00,,---,0.00,VWS V13.01,2013-09-23 15:10:00,
2013-09-23 10:15:00,54.5,35.8,30.07,SSW,192,0.0,0.0,49,0.00,,---,0.00,VWS V13.01,2013-09-23 15:15:00,
2013-09-23 10:20:00,54.9,36.1,30.07,SSE,156,3.6,4.7,49,0.00,,---,0.00,VWS V13.01,2013-09-23 15:20:00,
2013-09-23 10:25:00,55.2,36.4,30.07,SSW,192,4.5,4.5,49,0.00,,---,0.00,VWS V13.01,2013-09-23 15:25:00,
2013-09-23 10:30:00,55.6,36.7,30.04,SW,215,0.0,4.5,49,0.00,,---,0.00,VWS V13.01,2013-09-23 15:30:00,
2013-09-23 10:35:00,56.1,37.2,30.04,SSE,162,3.6,4.7,49,0.00,,---,0.00,VWS V13.01,2013-09-23 15:35:00,
2013-09-23 10:40:00,56.7,37.2,30.04,SSW,193,4.5,4.5,48,0.00,,---,0.00,VWS V13.01,2013-09-23 15:40:00,
2013-09-23 10:45:00,57.2,37.2,30.04,South,172,4.0,4.0,47,0.00,,---,0.00,VWS V13.01,2013-09-23 15:45:00,
2013-09-23 10:50:00,57.7,37.1,30.04,SSW,202,4.5,4.5,46,0.00,,---,0.00,VWS V13.01,2013-09-23 15:50:00,
2013-09-23 10:55:00,58.1,37.5,30.04,South,174,3.1,4.0,46,0.00,,---,0.00,VWS V13.01,2013-09-23 15:55:00,
2013-09-23 11:00:00,58.5,37.8,30.04,South,180,2.7,4.0,46,0.00,,---,0.00,VWS V13.01,2013-09-23 16:00:00,
2013-09-23 11:05:00,58.6,37.4,30.04,South,181,4.5,4.5,45,0.00,,---,0.00,VWS V13.01,2013-09-23 16:05:00,
2013-09-23 11:10:00,59.0,37.7,30.04,South,184,0.0,2.7,45,0.00,,---,0.00,VWS V13.01,2013-09-23 16:10:00,
2013-09-23 11:15:00,59.2,37.3,30.04,SSE,150,4.0,4.0,44,0.00,,---,0.00,VWS V13.01,2013-09-23 16:15:00,
2013-09-23 11:20:00,59.4,36.9,30.04,SSE,157,2.7,2.7,43,0.00,,---,0.00,VWS V13.01,2013-09-23 16:20:00,
2013-09-23 11:26:00,59.5,37.0,30.04,SW,230,4.5,4.5,43,0.00,,---,0.00,VWS V13.01,2013-09-23 16:26:00,
2013-09-23 11:31:00,59.9,38.0,30.04,NW,319,0.0,3.1,44,0.00,,---,0.00,VWS V13.01,2013-09-23 16:31:00,
2013-09-23 11:36:00,60.1,37.5,30.04,SSW,198,4.0,4.0,43,0.00,,---,0.00,VWS V13.01,2013-09-23 16:36:00,
2013-09-23 11:41:00,60.4,36.7,30.04,SSW,213,4.7,4.7,41,0.00,,---,0.00,VWS V13.01,2013-09-23 16:41:00,
2013-09-23 11:46:00,60.8,35.7,30.04,SSE,164,2.7,4.7,39,0.00,,---,0.00,VWS V13.01,2013-09-23 16:46:00,
2013-09-23 11:51:00,61.2,36.7,30.04,South,190,0.0,3.1,40,0.00,,---,0.00,VWS V13.01,2013-09-23 16:51:00,
2013-09-23 11:56:00,61.5,37.0,30.04,SW,218,5.6,5.6,40,0.00,,---,0.00,VWS V13.01,2013-09-23 16:56:00,
2013-09-23 12:01:00,61.7,36.5,30.04,SW,221,0.0,0.0,39,0.00,,---,0.00,VWS V13.01,2013-09-23 17:01:00,
2013-09-23 12:06:00,62.1,36.8,30.04,SSW,198,4.5,4.5,39,0.00,,---,0.00,VWS V13.01,2013-09-23 17:06:00,
2013-09-23 12:11:00,62.2,37.0,30.04,SSW,195,4.5,4.7,39,0.00,,---,0.00,VWS V13.01,2013-09-23 17:11:00,
2013-09-23 12:16:00,62.6,36.7,30.04,SSW,199,4.5,4.5,38,0.00,,---,0.00,VWS V13.01,2013-09-23 17:16:00,
2013-09-23 12:21:00,63.0,36.3,30.04,SW,226,5.6,5.6,37,0.00,,---,0.00,VWS V13.01,2013-09-23 17:21:00,
2013-09-23 12:26:00,63.1,36.5,30.04,South,184,2.7,5.1,37,0.00,,---,0.00,VWS V13.01,2013-09-23 17:26:00,
2013-09-23 12:31:00,63.5,36.8,30.04,SSE,162,2.7,4.5,37,0.00,,---,0.00,VWS V13.01,2013-09-23 17:31:00,
2013-09-23 12:36:00,63.9,37.1,30.04,SSE,155,3.6,5.6,37,0.00,,---,0.00,VWS V13.01,2013-09-23 17:36:00,
2013-09-23 12:41:00,64.2,36.7,30.04,SSE,152,4.0,4.7,36,0.00,,---,0.00,VWS V13.01,2013-09-23 17:41:00,
2013-09-23 12:46:00,64.4,36.2,30.04,South,171,4.5,4.5,35,0.00,,---,0.00,VWS V13.01,2013-09-23 17:46:00,
2013-09-23 12:51:00,64.8,36.5,30.04,SSW,204,4.5,4.7,35,0.00,,---,0.00,VWS V13.01,2013-09-23 17:51:00,
2013-09-23 12:56:00,64.9,36.7,30.04,SSW,199,6.9,6.9,35,0.00,,---,0.00,VWS V13.01,2013-09-23 17:56:00,
2013-09-23 13:01:00,65.3,37.0,30.04,SSE,155,4.5,4.7,35,0.00,,---,0.00,VWS V13.01,2013-09-23 18:01:00,
2013-09-23 13:06:00,65.8,37.5,30.04,South,175,3.1,4.0,35,0.00,,---,0.00,VWS V13.01,2013-09-23 18:06:00,
2013-09-23 13:11:00,66.4,37.2,30.04,SSW,200,5.1,6.0,34,0.00,,---,0.00,VWS V13.01,2013-09-23 18:11:00,
2013-09-23 13:16:00,66.7,37.5,30.04,WSW,242,3.1,4.5,34,0.00,,---,0.00,VWS V13.01,2013-09-23 18:16:00,
2013-09-23 13:21:00,67.3,37.2,30.04,South,179,0.0,0.0,33,0.00,,---,0.00,VWS V13.01,2013-09-23 18:21:00,
2013-09-23 13:26:00,67.5,37.4,30.04,ENE,69,4.0,5.6,33,0.00,,---,0.00,VWS V13.01,2013-09-23 18:26:00,
2013-09-23 13:31:00,67.3,38.0,30.04,SW,218,3.1,5.1,34,0.00,,---,0.00,VWS V13.01,2013-09-23 18:31:00,
2013-09-23 13:36:00,67.6,38.3,30.04,SSE,168,0.0,0.0,34,0.00,,---,0.00,VWS V13.01,2013-09-23 18:36:00,
2013-09-23 13:41:00,68.0,37.8,30.04,South,171,4.0,4.5,33,0.00,,---,0.00,VWS V13.01,2013-09-23 18:41:00,
2013-09-23 13:46:00,68.0,37.8,30.01,SW,222,4.5,4.5,33,0.00,,---,0.00,VWS V13.01,2013-09-23 18:46:00,
2013-09-23 13:51:00,68.5,38.3,30.01,West,275,4.5,4.5,33,0.00,,---,0.00,VWS V13.01,2013-09-23 18:51:00,
2013-09-23 13:56:00,69.4,39.1,30.01,SW,233,3.1,3.6,33,0.00,,---,0.00,VWS V13.01,2013-09-23 18:56:00,
2013-09-23 14:01:00,70.2,39.0,30.01,SSE,149,3.6,3.6,32,0.00,,---,0.00,VWS V13.01,2013-09-23 19:01:00,
2013-09-23 14:06:00,70.5,38.5,30.01,South,173,3.6,4.7,31,0.00,,---,0.00,VWS V13.01,2013-09-23 19:06:00,
2013-09-23 14:11:00,70.9,39.6,30.01,SSW,212,4.0,4.5,32,0.00,,---,0.00,VWS V13.01,2013-09-23 19:11:00,
2013-09-23 14:16:00,71.1,38.1,30.01,South,191,4.0,4.5,30,0.00,,---,0.00,VWS V13.01,2013-09-23 19:16:00,
2013-09-23 14:21:00,70.7,36.9,30.01,SSE,158,3.6,3.6,29,0.00,,---,0.00,VWS V13.01,2013-09-23 19:21:00,
2013-09-23 14:26:00,70.7,36.9,30.01,SSE,158,4.0,4.0,29,0.00,,---,0.00,VWS V13.01,2013-09-23 19:26:00,
2013-09-23 14:31:00,70.7,37.8,30.01,SW,217,6.9,6.9,30,0.00,,---,0.00,VWS V13.01,2013-09-23 19:31:00,
2013-09-23 14:36:00,71.1,38.1,30.01,South,169,3.1,4.5,30,0.00,,---,0.00,VWS V13.01,2013-09-23 19:36:00,
2013-09-23 14:41:00,71.2,38.2,30.01,SSE,159,4.5,5.1,30,0.00,,---,0.00,VWS V13.01,2013-09-23 19:41:00,
2013-09-23 14:46:00,71.4,36.7,30.01,SW,217,4.5,5.6,28,0.00,,---,0.00,VWS V13.01,2013-09-23 19:46:00,
2013-09-23 14:51:00,71.4,38.4,30.01,SW,220,0.0,0.0,30,0.00,,---,0.00,VWS V13.01,2013-09-23 19:51:00,
2013-09-23 14:56:00,72.0,39.7,30.01,SW,220,0.0,0.0,31,0.00,,---,0.00,VWS V13.01,2013-09-23 19:56:00,
2013-09-23 15:01:00,72.7,39.5,30.01,SW,220,3.1,4.0,30,0.00,,---,0.00,VWS V13.01,2013-09-23 20:01:00,
2013-09-23 15:06:00,72.7,37.7,30.01,SE,145,0.0,4.0,28,0.00,,---,0.00,VWS V13.01,2013-09-23 20:06:00,
2013-09-23 15:11:00,72.0,37.1,30.01,ESE,106,2.7,4.0,28,0.00,,---,0.00,VWS V13.01,2013-09-23 20:11:00,
2013-09-23 15:16:00,71.6,37.7,29.98,SSW,206,3.6,5.1,29,0.00,,---,0.00,VWS V13.01,2013-09-23 20:16:00,
2013-09-23 15:21:00,71.1,37.2,29.98,SSE,159,3.1,4.5,29,0.00,,---,0.00,VWS V13.01,2013-09-23 20:21:00,
2013-09-23 15:26:00,71.2,36.5,29.98,SSE,150,4.5,4.7,28,0.00,,---,0.00,VWS V13.01,2013-09-23 20:26:00,
2013-09-23 15:31:00,70.9,36.2,29.98,SSE,150,0.0,4.0,28,0.00,,---,0.00,VWS V13.01,2013-09-23 20:31:00,
2013-09-23 15:36:00,70.7,36.0,29.98,ESE,109,0.0,0.0,28,0.00,,---,0.00,VWS V13.01,2013-09-23 20:36:00,
2013-09-23 15:41:00,70.3,35.7,29.98,SSW,201,3.6,3.6,28,0.00,,---,0.00,VWS V13.01,2013-09-23 20:41:00,
2013-09-23 15:46:00,70.2,36.5,29.98,South,183,4.5,4.5,29,0.00,,---,0.00,VWS V13.01,2013-09-23 20:46:00,
2013-09-23 15:51:00,69.8,36.1,29.98,South,187,4.0,4.0,29,0.00,,---,0.00,VWS V13.01,2013-09-23 20:51:00,
2013-09-23 15:56:00,69.8,36.1,29.98,SW,216,4.0,5.6,29,0.00,,---,0.00,VWS V13.01,2013-09-23 20:56:00,
2013-09-23 16:01:00,69.6,36.0,29.98,South,181,3.1,3.6,29,0.00,,---,0.00,VWS V13.01,2013-09-23 21:01:00,
2013-09-23 16:06:00,70.0,36.3,29.98,South,187,2.7,3.6,29,0.00,,---,0.00,VWS V13.01,2013-09-23 21:06:00,
2013-09-23 16:11:00,70.3,37.5,29.98,South,191,0.0,0.0,30,0.00,,---,0.00,VWS V13.01,2013-09-23 21:11:00,
2013-09-23 16:16:00,70.5,36.8,29.98,South,183,0.0,0.0,29,0.00,,---,0.00,VWS V13.01,2013-09-23 21:16:00,
2013-09-23 16:21:00,70.2,36.5,29.98,WSW,243,3.6,4.0,29,0.00,,---,0.00,VWS V13.01,2013-09-23 21:21:00,
2013-09-23 16:26:00,69.6,36.8,29.98,WSW,243,0.0,0.0,30,0.00,,---,0.00,VWS V13.01,2013-09-23 21:26:00,
2013-09-23 16:31:00,69.1,36.4,29.98,WSW,243,0.0,0.0,30,0.00,,---,0.00,VWS V13.01,2013-09-23 21:31:00,
2013-09-23 16:37:00,68.5,35.9,29.98,WSW,243,0.0,0.0,30,0.00,,---,0.00,VWS V13.01,2013-09-23 21:37:00,
2013-09-23 16:42:00,68.2,37.2,29.98,WSW,243,0.0,0.0,32,0.00,,---,0.00,VWS V13.01,2013-09-23 21:42:00,
2013-09-23 16:47:00,67.8,37.7,29.98,WSW,243,0.0,0.0,33,0.00,,---,0.00,VWS V13.01,2013-09-23 21:47:00,
2013-09-23 16:52:00,67.6,37.5,29.98,South,190,0.0,0.0,33,0.00,,---,0.00,VWS V13.01,2013-09-23 21:52:00,
2013-09-23 16:57:00,67.5,37.4,29.98,South,190,0.0,0.0,33,0.00,,---,0.00,VWS V13.01,2013-09-23 21:57:00,
2013-09-23 17:02:00,67.5,37.4,29.98,South,190,0.0,0.0,33,0.00,,---,0.00,VWS V13.01,2013-09-23 22:02:00,
2013-09-23 17:07:00,67.3,37.2,29.98,South,190,0.0,0.0,33,0.00,,---,0.00,VWS V13.01,2013-09-23 22:07:00,
2013-09-23 17:12:00,67.1,37.1,29.98,SSE,165,3.6,4.7,33,0.00,,---,0.00,VWS V13.01,2013-09-23 22:12:00,
2013-09-23 17:17:00,67.1,36.3,29.98,SSE,168,3.1,3.6,32,0.00,,---,0.00,VWS V13.01,2013-09-23 22:17:00,
2013-09-23 17:22:00,67.1,36.3,29.98,SSE,168,3.1,3.1,32,0.00,,---,0.00,VWS V13.01,2013-09-23 22:22:00,
2013-09-23 17:27:00,67.1,36.3,29.98,SSE,168,3.1,3.6,32,0.00,,---,0.00,VWS V13.01,2013-09-23 22:27:00,
2013-09-23 17:32:00,66.9,36.9,29.98,SSE,168,0.0,0.0,33,0.00,,---,0.00,VWS V13.01,2013-09-23 22:32:00,
2013-09-23 17:37:00,66.4,36.4,29.98,SSE,168,0.0,0.0,33,0.00,,---,0.00,VWS V13.01,2013-09-23 22:37:00,
2013-09-23 17:42:00,65.8,36.7,29.98,SSE,168,0.0,0.0,34,0.00,,---,0.00,VWS V13.01,2013-09-23 22:42:00,
2013-09-23 17:47:00,65.5,36.4,29.98,SSE,168,0.0,0.0,34,0.00,,---,0.00,VWS V13.01,2013-09-23 22:47:00,
2013-09-23 17:52:00,65.1,36.8,29.98,SSE,168,0.0,0.0,35,0.00,,---,0.00,VWS V13.01,2013-09-23 22:52:00,
2013-09-23 17:57:00,64.4,36.9,29.98,SSE,168,0.0,0.0,36,0.00,,---,0.00,VWS V13.01,2013-09-23 22:57:00,
2013-09-23 18:02:00,64.0,36.6,29.98,SSE,168,0.0,0.0,36,0.00,,---,0.00,VWS V13.01,2013-09-23 23:02:00,
2013-09-23 18:07:00,63.1,36.5,29.98,SSE,168,0.0,0.0,37,0.00,,---,0.00,VWS V13.01,2013-09-23 23:07:00,
2013-09-23 18:12:00,62.6,36.7,29.98,SSE,168,0.0,0.0,38,0.00,,---,0.00,VWS V13.01,2013-09-23 23:12:00,
2013-09-23 18:17:00,62.2,37.6,29.98,SSE,168,0.0,0.0,40,0.00,,---,0.00,VWS V13.01,2013-09-23 23:17:00,
2013-09-23 18:22:00,61.7,37.8,29.98,SSE,168,0.0,0.0,41,0.00,,---,0.00,VWS V13.01,2013-09-23 23:22:00,
2013-09-23 18:27:00,61.3,38.1,29.98,SSE,168,0.0,0.0,42,0.00,,---,0.00,VWS V13.01,2013-09-23 23:27:00,
2013-09-23 18:32:00,61.2,38.5,29.98,SSE,168,0.0,0.0,43,0.00,,---,0.00,VWS V13.01,2013-09-23 23:32:00,
2013-09-23 18:37:00,60.6,38.6,29.98,SSE,168,0.0,0.0,44,0.00,,---,0.00,VWS V13.01,2013-09-23 23:37:00,
2013-09-23 18:42:00,60.4,39.0,29.98,SSE,168,0.0,0.0,45,0.00,,---,0.00,VWS V13.01,2013-09-23 23:42:00,
2013-09-23 18:47:00,60.1,39.2,29.98,SSE,168,0.0,0.0,46,0.00,,---,0.00,VWS V13.01,2013-09-23 23:47:00,
2013-09-23 18:52:00,59.7,38.9,29.98,SSE,168,0.0,0.0,46,0.00,,---,0.00,VWS V13.01,2013-09-23 23:52:00,
2013-09-23 18:57:00,59.5,39.3,29.98,SSE,168,0.0,0.0,47,0.00,,---,0.00,VWS V13.01,2013-09-23 23:57:00,
2013-09-23 19:02:00,59.2,39.0,29.98,SSE,167,0.0,0.0,47,0.00,,---,0.00,VWS V13.01,2013-09-24 00:02:00,
2013-09-23 19:07:00,58.8,39.2,29.98,SSE,168,0.0,0.0,48,0.00,,---,0.00,VWS V13.01,2013-09-24 00:07:00,
2013-09-23 19:12:00,58.6,39.5,29.98,SSE,167,0.0,0.0,49,0.00,,---,0.00,VWS V13.01,2013-09-24 00:12:00,
2013-09-23 19:17:00,58.3,39.2,29.98,SSE,168,0.0,0.0,49,0.00,,---,0.00,VWS V13.01,2013-09-24 00:17:00,
2013-09-23 19:22:00,58.1,39.1,29.98,SSE,168,0.0,0.0,49,0.00,,---,0.00,VWS V13.01,2013-09-24 00:22:00,
2013-09-23 19:27:00,57.9,39.4,29.98,SSE,168,0.0,0.0,50,0.00,,---,0.00,VWS V13.01,2013-09-24 00:27:00,
2013-09-23 19:33:00,57.7,39.2,29.98,SSE,168,0.0,0.0,50,0.00,,---,0.00,VWS V13.01,2013-09-24 00:33:00,
2013-09-23 19:38:00,57.7,39.8,29.98,SSE,168,0.0,0.0,51,0.00,,---,0.00,VWS V13.01,2013-09-24 00:38:00,
2013-09-23 19:43:00,57.6,39.6,29.98,SSE,168,0.0,0.0,51,0.00,,---,0.00,VWS V13.01,2013-09-24 00:43:00,
2013-09-23 19:48:00,57.4,39.9,29.98,SSE,168,0.0,0.0,52,0.00,,---,0.00,VWS V13.01,2013-09-24 00:48:00,
2013-09-23 19:53:00,57.2,39.8,29.98,SSE,168,0.0,0.0,52,0.00,,---,0.00,VWS V13.01,2013-09-24 00:53:00,
2013-09-23 19:58:00,57.0,40.1,30.01,SSE,168,0.0,0.0,53,0.00,,---,0.00,VWS V13.01,2013-09-24 00:58:00,
2013-09-23 20:03:00,56.8,39.9,30.01,SSE,168,0.0,0.0,53,0.00,,---,0.00,VWS V13.01,2013-09-24 01:03:00,
2013-09-23 20:08:00,56.7,39.7,30.01,SSE,168,0.0,0.0,53,0.00,,---,0.00,VWS V13.01,2013-09-24 01:08:00,
2013-09-23 20:13:00,56.3,39.4,30.01,SSE,168,0.0,0.0,53,0.00,,---,0.00,VWS V13.01,2013-09-24 01:13:00,
2013-09-23 20:18:00,56.1,39.7,30.01,SSE,168,0.0,0.0,54,0.00,,---,0.00,VWS V13.01,2013-09-24 01:18:00,
2013-09-23 20:23:00,56.1,39.7,30.01,SSE,168,0.0,0.0,54,0.00,,---,0.00,VWS V13.01,2013-09-24 01:23:00,
2013-09-23 20:28:00,56.5,40.0,30.01,SSE,168,0.0,0.0,54,0.00,,---,0.00,VWS V13.01,2013-09-24 01:28:00,
2013-09-23 20:33:00,56.8,39.9,30.01,SSE,168,0.0,0.0,53,0.00,,---,0.00,VWS V13.01,2013-09-24 01:33:00,
2013-09-23 20:38:00,57.0,39.1,30.01,SSE,168,0.0,0.0,51,0.00,,---,0.00,VWS V13.01,2013-09-24 01:38:00,
2013-09-23 20:43:00,57.2,38.8,30.01,SSE,167,0.0,0.0,50,0.00,,---,0.00,VWS V13.01,2013-09-24 01:43:00,
2013-09-23 20:48:00,57.6,38.6,30.01,SSE,168,0.0,0.0,49,0.00,,---,0.00,VWS V13.01,2013-09-24 01:48:00,
2013-09-23 20:53:00,57.6,38.0,30.01,SSE,168,0.0,0.0,48,0.00,,---,0.00,VWS V13.01,2013-09-24 01:53:00,
2013-09-23 20:58:00,57.7,37.7,30.01,SSE,168,3.6,3.6,47,0.00,,---,0.00,VWS V13.01,2013-09-24 01:58:00,
2013-09-23 21:03:00,57.9,37.8,30.01,SSE,168,3.1,3.1,47,0.00,,---,0.00,VWS V13.01,2013-09-24 02:03:00,
2013-09-23 21:08:00,57.9,37.8,30.01,SSE,168,4.0,4.0,47,0.00,,---,0.00,VWS V13.01,2013-09-24 02:08:00,
2013-09-23 21:13:00,57.9,37.3,30.01,SSE,168,3.6,3.6,46,0.00,,---,0.00,VWS V13.01,2013-09-24 02:13:00,
2013-09-23 21:18:00,57.9,37.3,30.01,SSE,168,3.1,3.6,46,0.00,,---,0.00,VWS V13.01,2013-09-24 02:18:00,
2013-09-23 21:24:00,57.9,37.3,30.01,SSE,167,2.7,3.6,46,0.00,,---,0.00,VWS V13.01,2013-09-24 02:24:00,
2013-09-23 21:29:00,57.7,37.1,30.01,SSE,168,3.6,3.6,46,0.00,,---,0.00,VWS V13.01,2013-09-24 02:29:00,
2013-09-23 21:34:00,57.6,37.5,30.01,SSE,168,3.1,3.6,47,0.00,,---,0.00,VWS V13.01,2013-09-24 02:34:00,
2013-09-23 21:39:00,57.6,37.5,30.01,SSE,168,3.6,4.0,47,0.00,,---,0.00,VWS V13.01,2013-09-24 02:39:00,
2013-09-23 21:44:00,57.6,37.5,30.01,South,176,3.6,3.6,47,0.00,,---,0.00,VWS V13.01,2013-09-24 02:44:00,
2013-09-23 21:49:00,57.6,37.5,30.01,South,190,3.6,4.0,47,0.00,,---,0.00,VWS V13.01,2013-09-24 02:49:00,
2013-09-23 21:54:00,57.7,37.7,30.01,South,190,2.7,4.0,47,0.00,,---,0.00,VWS V13.01,2013-09-24 02:54:00,
2013-09-23 21:59:00,57.6,37.5,30.01,South,190,3.6,3.6,47,0.00,,---,0.00,VWS V13.01,2013-09-24 02:59:00,
2013-09-23 22:04:00,57.4,37.3,30.01,South,190,3.1,3.6,47,0.00,,---,0.00,VWS V13.01,2013-09-24 03:04:00,
2013-09-23 22:09:00,57.2,37.2,30.01,South,190,3.1,3.1,47,0.00,,---,0.00,VWS V13.01,2013-09-24 03:09:00,
2013-09-23 22:14:00,56.8,37.4,30.01,South,190,2.7,3.1,48,0.00,,---,0.00,VWS V13.01,2013-09-24 03:14:00,
2013-09-23 22:20:00,56.7,37.2,30.01,South,190,2.7,3.6,48,0.00,,---,0.00,VWS V13.01,2013-09-24 03:20:00,
2013-09-23 22:25:00,56.5,37.6,30.01,South,190,3.6,3.6,49,0.00,,---,0.00,VWS V13.01,2013-09-24 03:25:00,
2013-09-23 22:30:00,56.5,37.6,30.01,South,190,3.1,3.6,49,0.00,,---,0.00,VWS V13.01,2013-09-24 03:30:00,
2013-09-23 22:35:00,56.5,37.6,30.01,South,190,3.1,3.1,49,0.00,,---,0.00,VWS V13.01,2013-09-24 03:35:00,
2013-09-23 22:40:00,56.5,37.6,30.01,South,190,3.1,3.1,49,0.00,,---,0.00,VWS V13.01,2013-09-24 03:40:00,
2013-09-23 22:45:00,56.3,37.4,30.01,South,190,3.1,3.1,49,0.00,,---,0.00,VWS V13.01,2013-09-24 03:45:00,
2013-09-23 22:50:00,56.1,37.2,30.01,South,190,3.1,3.1,49,0.00,,---,0.00,VWS V13.01,2013-09-24 03:50:00,
2013-09-23 22:55:00,55.9,37.6,30.01,South,190,3.1,3.6,50,0.00,,---,0.00,VWS V13.01,2013-09-24 03:55:00,
2013-09-23 23:00:00,55.8,37.4,30.01,South,190,4.5,4.5,50,0.00,,---,0.00,VWS V13.01,2013-09-24 04:00:00,
2013-09-23 23:01:00,55.8,37.9,30.01,South,190,4.0,4.5,51,0.00,,---,0.00,VWS V13.01,2013-09-24 04:01:00,
2013-09-23 23:06:00,55.6,37.8,30.01,SSW,206,4.5,4.5,51,0.00,,---,0.00,VWS V13.01,2013-09-24 04:06:00,
2013-09-23 23:11:00,55.6,38.2,30.01,SSW,206,4.0,4.5,52,0.00,,---,0.00,VWS V13.01,2013-09-24 04:11:00,
2013-09-23 23:16:00,55.6,38.2,30.01,SSW,206,4.0,4.0,52,0.00,,---,0.00,VWS V13.01,2013-09-24 04:16:00,
2013-09-23 23:21:00,55.6,37.8,30.01,SSW,206,3.6,4.5,51,0.00,,---,0.00,VWS V13.01,2013-09-24 04:21:00,
2013-09-23 23:26:00,55.4,38.1,30.01,SSW,206,4.5,4.5,52,0.00,,---,0.00,VWS V13.01,2013-09-24 04:26:00,
2013-09-23 23:31:00,55.2,37.9,30.01,SSW,206,4.0,4.0,52,0.00,,---,0.00,VWS V13.01,2013-09-24 04:31:00,
2013-09-23 23:36:00,55.0,37.8,30.01,SSW,206,3.6,4.0,52,0.00,,---,0.00,VWS V13.01,2013-09-24 04:36:00,
2013-09-23 23:41:00,55.0,38.2,30.01,SSW,206,3.6,4.5,53,0.00,,---,0.00,VWS V13.01,2013-09-24 04:41:00,
2013-09-23 23:46:00,54.9,38.1,30.01,SSW,206,4.5,4.5,53,0.00,,---,0.00,VWS V13.01,2013-09-24 04:46:00,
2013-09-23 23:51:00,54.9,38.1,30.01,SSW,206,4.0,4.0,53,0.00,,---,0.00,VWS V13.01,2013-09-24 04:51:00,
2013-09-23 23:56:00,54.9,38.1,30.01,SSW,206,4.0,4.0,53,0.00,,---,0.00,VWS V13.01,2013-09-24 04:56:00,